Airfield :
LOGIN :

Register | Disclaimer

   EN    FR    IT 

 










Legend :    VFR   Marginal VFR   IFR   Intensive IFR   Very Intensive IFR
Visi :
Ceiling :
>= 8 km
>= 3000ft
5 to 8 km
1000 to 3000 ft
1500m to 5 km
500 to 1000 ft
800 to 1500m
200 to 500 ft
< 800m
< 200 ft
Symbols :   Thunderstorms  Fog  Heavy snow  Heavy precipitations  Wind > 20 kt
SIGMETs :     Misc.  Thunderstorms  Icing  Turbulence  Mountain Waves  Volcanic Ashes






- Airport Elevation : 39 ft
- IATA code : ANR


EBAW - Anvers / Antwerpen Deurne

CURRENT METAR :
  • 201350Z 20009KT 160V230 9999 -RA NSC 16/10 Q1007 TEMPO 20015G25KT

EXPIRED METARs :
  • 201320Z 21009KT 170V230 CAVOK 16/10 Q1008 TEMPO 20015G25KT
  • 201250Z 21010KT CAVOK 16/10 Q1008 TEMPO 20015G25KT
  • 201220Z 21011KT CAVOK 16/10 Q1007 NOSIG
  • 201150Z 20012KT 170V230 CAVOK 16/10 Q1007 NOSIG
  • 201120Z 19010KT 160V230 CAVOK 15/10 Q1007 NOSIG

TAF TAF EBAW
Valid from the 20 at 12:00 until the 20 at 21:00 UTC


201110Z 2012/2021 19014KT 9999 -RA SCT040
PROB30
TEMPO 2012/2017 20015G25KT 4000 RA BKN012
PROB40
TEMPO 2017/2021 BKN012



MET'MAP, your aeronautical weather chart ! - Copyright ORBIFLY December 2007 - Disclaimer

ORBIFLY MET'MAP TEAM :

Programming & Development : Alexandra Zaïnal
Concept & original design : Baudouin d'Aumeries
Assistance for programming : Marc-Olivier Méhu
Technical & hardware support : Manuel Goepfert

Contact : metmap@orbifly.com




SOURCES & CREDITS :

   NOAA